Terminal Aerodrome Forecast
Issued by NWS Columbia, SC

Home | Current Version | Previous Version | Text Only | Print | Product List | Glossary On
Versions: 1 2 3 4 5 6 7 8 9 10 11 12 13 14 15 16 17 18 19 20 21 22 23 24 25 26 27 28 29 30
000
FTUS42 KCAE 011400 AAA
TAFCAE
TAF AMD
KCAE 011405Z 0114/0212 29015G25KT 3SM -RA BR OVC010
     FM011500 31015G30KT 5SM -RA OVC015
     FM012100 30015G25KT P6SM BKN040
     FM020000 30012KT P6SM SCT040=

USA.gov is the U.S. government's official web portal to all federal, state and local government web resources and services.